Weather History for Fairmont, MN

Change the Weather History Date:

Thursday, December 13, 2012

  Actual Average Record
Temperature  
Mean Temperature 25 °F -  
Max Temperature 33 °F 28 °F 48 °F (1998)
Min Temperature 17 °F 12 °F -17 °F (1985)
Degree Days  
Heating Degree Days 40    
Moisture  
Dew Point 18 °F    
Average Humidity 68    
Maximum Humidity 93    
Minimum Humidity 48    
Precipitation  
Precipitation 0.00 in - - ()
Sea Level Pressure  
Sea Level Pressure 29.98 in    
Wind  
Wind Speed 11 mph (West)    
Max Wind Speed 16 mph    
Max Gust Speed 21 mph    
Visibility 10 miles    
Events      
Averages and records for this station are not official NWS values.
T = Trace of Precipitation, MM = Missing Value Source: NWS Daily Summary

Daily Weather History Graph

Daily Weather History Graph

Search for Another Location

Airport:

Trip Planner

Search our weather history database for the weather conditions in past years. The results will help you decide how hot, cold, wet, or windy it might be!

Date:

Astronomy

Dec. 13, 2012 Rise Set
Actual Time 7:43 AM CST 4:41 PM CST
Civil Twilight 7:10 AM CST 5:13 PM CST
Nautical Twilight 6:34 AM CST 5:50 PM CST
Astronomical Twilight 5:59 AM CST 6:25 PM CST
Moon 7:51 AM CST (12/13) 5:25 PM CST (12/13)
Length of Visible Light 10h 03m
Length of Day
8h 58m
New Moon, 0% of the Moon is Illuminated
Dec 13
New Moon
Dec 19
First Quarter
Dec 28
Full
Jan 4
Last Quarter
Jan 11
New

Hourly Weather History & Observations

Time (CST) Temp. Windchill Dew Point Humidity Pressure Visibility Wind Dir Wind Speed Gust Speed Precip Events Conditions
12:15 AM 33.8 °F 23.9 °F 17.6 °F 52% 29.90 in 10.0 mi South 15.0 mph - N/A   Clear
12:35 AM 33.8 °F 23.9 °F 17.6 °F 52% 29.90 in 10.0 mi South 15.0 mph - N/A   Clear
12:55 AM 33.8 °F 23.9 °F 17.6 °F 52% 29.89 in 10.0 mi South 15.0 mph - N/A   Clear
1:15 AM 33.8 °F 23.9 °F 17.6 °F 52% 29.89 in 10.0 mi South 15.0 mph - N/A   Clear
1:35 AM 33.8 °F 24.3 °F 17.6 °F 52% 29.89 in 10.0 mi South 13.8 mph - N/A   Clear
1:55 AM 33.8 °F 23.9 °F 17.6 °F 52% 29.88 in 10.0 mi South 15.0 mph 20.7 mph N/A   Clear
2:15 AM 33.8 °F 24.3 °F 17.6 °F 52% 29.88 in 10.0 mi South 13.8 mph - N/A   Clear
2:35 AM 33.8 °F 24.8 °F 17.6 °F 52% 29.89 in 10.0 mi South 12.7 mph - N/A   Clear
2:55 AM 33.8 °F 24.3 °F 17.6 °F 52% 29.89 in 10.0 mi South 13.8 mph - N/A   Clear
3:15 AM 33.8 °F 23.9 °F 15.8 °F 48% 29.89 in 10.0 mi South 15.0 mph - N/A   Clear
3:35 AM 33.8 °F 23.5 °F 17.6 °F 52% 29.88 in 10.0 mi South 16.1 mph - N/A   Clear
3:55 AM 33.8 °F 23.5 °F 15.8 °F 48% 29.88 in 10.0 mi South 16.1 mph - N/A   Clear
4:15 AM 33.8 °F 23.9 °F 17.6 °F 52% 29.88 in 10.0 mi South 15.0 mph - N/A   Clear
4:35 AM 33.8 °F 23.5 °F 15.8 °F 48% 29.87 in 10.0 mi SSW 16.1 mph 20.7 mph N/A   Clear
4:55 AM 33.8 °F 23.9 °F 15.8 °F 48% 29.87 in 10.0 mi South 15.0 mph - N/A   Clear
5:15 AM 32.0 °F 22.1 °F 15.8 °F 51% 29.88 in 10.0 mi South 13.8 mph - N/A   Clear
5:35 AM 32.0 °F 22.1 °F 15.8 °F 51% 29.88 in 10.0 mi South 13.8 mph - N/A   Clear
5:55 AM 32.0 °F 23.0 °F 15.8 °F 51% 29.89 in 10.0 mi SSW 11.5 mph 17.3 mph N/A   Clear
6:15 AM 32.0 °F 23.0 °F 17.6 °F 55% 29.89 in 10.0 mi SSW 11.5 mph - N/A   Clear
6:35 AM 30.2 °F 20.8 °F 17.6 °F 60% 29.90 in 10.0 mi SSW 11.5 mph - N/A   Clear
6:55 AM 30.2 °F 21.9 °F 17.6 °F 60% 29.91 in 10.0 mi SSW 9.2 mph - N/A   Clear
7:15 AM 30.2 °F 23.4 °F 17.6 °F 60% 29.91 in 10.0 mi SSW 6.9 mph - N/A   Clear
7:35 AM 30.2 °F 24.3 °F 17.6 °F 60% 29.92 in 10.0 mi SSW 5.8 mph - N/A   Clear
7:55 AM 28.4 °F 24.6 °F 17.6 °F 64% 29.92 in 10.0 mi SSW 3.5 mph - N/A   Clear
8:15 AM 28.4 °F 24.6 °F 17.6 °F 64% 29.93 in 10.0 mi SSW 3.5 mph - N/A   Clear
8:35 AM 26.6 °F 21.2 °F 17.6 °F 69% 29.94 in 10.0 mi SSW 4.6 mph - N/A   Clear
8:55 AM 28.4 °F 23.3 °F 19.4 °F 69% 29.94 in 10.0 mi South 4.6 mph - N/A   Clear
9:15 AM 28.4 °F - 19.4 °F 69% 29.95 in 10.0 mi Calm Calm - N/A   Clear
9:35 AM 30.2 °F 25.4 °F 19.4 °F 64% 29.96 in 10.0 mi SW 4.6 mph - N/A   Clear
9:55 AM 30.2 °F 24.3 °F 19.4 °F 64% 29.97 in 10.0 mi WSW 5.8 mph - N/A   Clear
10:15 AM 28.4 °F 20.4 °F 19.4 °F 69% 29.98 in 10.0 mi NNW 8.1 mph - N/A   Clear
10:35 AM 26.6 °F 18.2 °F 19.4 °F 74% 29.99 in 10.0 mi NNW 8.1 mph - N/A   Clear
10:55 AM 26.6 °F 17.5 °F 19.4 °F 74% 29.99 in 10.0 mi NNW 9.2 mph - N/A   Clear
11:15 AM 24.8 °F 14.6 °F 17.6 °F 74% 29.99 in 10.0 mi NW 10.4 mph - N/A   Clear
11:35 AM 26.6 °F 18.2 °F 17.6 °F 69% 30.00 in 10.0 mi NW 8.1 mph - N/A   Clear
11:55 AM 28.4 °F 21.2 °F 19.4 °F 69% 30.00 in 10.0 mi NW 6.9 mph - N/A   Clear
12:15 PM 30.2 °F 21.3 °F 19.4 °F 64% 30.00 in 10.0 mi NW 10.4 mph - N/A   Clear
12:35 PM 30.2 °F 23.4 °F 21.2 °F 69% 30.00 in 10.0 mi NNW 6.9 mph - N/A   Clear
12:55 PM 30.2 °F 22.6 °F 21.2 °F 69% 29.99 in 10.0 mi NNW 8.1 mph - N/A   Clear
1:15 PM 28.4 °F 20.4 °F 21.2 °F 74% 29.99 in 10.0 mi NNW 8.1 mph - N/A   Clear
1:35 PM 28.4 °F 21.2 °F 19.4 °F 69% 30.00 in 10.0 mi NW 6.9 mph - N/A   Clear
1:55 PM 28.4 °F 19.1 °F 19.4 °F 69% 30.00 in 10.0 mi NW 10.4 mph - N/A   Clear
2:15 PM 26.6 °F 16.8 °F 19.4 °F 74% 30.01 in 10.0 mi NNW 10.4 mph - N/A   Clear
2:35 PM 26.6 °F 18.2 °F 19.4 °F 74% 30.02 in 10.0 mi NW 8.1 mph - N/A   Clear
2:55 PM 26.6 °F 18.2 °F 19.4 °F 74% 30.02 in 10.0 mi NW 8.1 mph - N/A   Clear
3:15 PM 26.6 °F 18.2 °F 19.4 °F 74% 30.03 in 10.0 mi NW 8.1 mph - N/A   Clear
3:35 PM 26.6 °F 17.5 °F 19.4 °F 74% 30.03 in 10.0 mi NNW 9.2 mph - N/A   Clear
3:55 PM 24.8 °F 16.1 °F 19.4 °F 80% 30.04 in 10.0 mi NW 8.1 mph - N/A   Clear
4:15 PM 24.8 °F 16.9 °F 19.4 °F 80% 30.04 in 10.0 mi NNW 6.9 mph - N/A   Clear
4:35 PM 23.0 °F 14.7 °F 17.6 °F 80% 30.06 in 10.0 mi NW 6.9 mph - N/A   Clear
6:15 PM 21.2 °F 11.7 °F 17.6 °F 86% 30.06 in 8.0 mi NNW 8.1 mph - N/A   Clear
7:15 PM 21.2 °F - 17.6 °F 86% 30.07 in 9.0 mi Calm Calm - N/A   Clear
7:35 PM 19.4 °F 12.8 °F 17.6 °F 93% 30.07 in 9.0 mi NNW 4.6 mph - N/A   Clear
7:55 PM 19.4 °F 12.8 °F 15.8 °F 86% 30.07 in 8.0 mi NNW 4.6 mph - N/A   Clear
8:15 PM 19.4 °F 12.8 °F 15.8 °F 86% 30.08 in 10.0 mi NNW 4.6 mph - N/A   Clear
8:35 PM 19.4 °F 11.5 °F 15.8 °F 86% 30.07 in 10.0 mi North 5.8 mph - N/A   Clear
8:55 PM 19.4 °F 11.5 °F 15.8 °F 86% 30.08 in 10.0 mi NNW 5.8 mph - N/A   Clear
9:15 PM 19.4 °F 11.5 °F 15.8 °F 86% 30.08 in 10.0 mi NW 5.8 mph - N/A   Clear
9:35 PM 19.4 °F 10.4 °F 15.8 °F 86% 30.08 in 10.0 mi NNW 6.9 mph - N/A   Clear
9:55 PM 19.4 °F 10.4 °F 15.8 °F 86% 30.08 in 10.0 mi NNW 6.9 mph - N/A   Clear
10:15 PM 17.6 °F 8.2 °F 15.8 °F 93% 30.08 in 10.0 mi NNW 6.9 mph - N/A   Clear
10:35 PM 17.6 °F 8.2 °F 14.0 °F 86% 30.08 in 10.0 mi NNW 6.9 mph - N/A   Clear
10:55 PM 17.6 °F - 14.0 °F 86% 30.08 in 10.0 mi Calm Calm - N/A   Clear
11:15 PM 17.6 °F 9.3 °F 14.0 °F 86% 30.08 in 10.0 mi North 5.8 mph - N/A   Clear
11:35 PM 17.6 °F 10.7 °F 14.0 °F 86% 30.09 in 10.0 mi NNW 4.6 mph - N/A   Clear
11:55 PM 17.6 °F - 14.0 °F 86% 30.09 in 10.0 mi Calm Calm - N/A   Clear